Finike, Turkey
Current Conditions -  °F | °C
As of 2:20 AM on Saturday 25 Oct 2014 (Local Time) from LTAI Reporting Station
Thunderstorm Thunderstorm  
Wind Chill: 63°   Ceiling: 1500
Heat Index: 63°   Visibility: 6mi
Dew Point: 59°   Wind: 3mph
Humidity: 88%   Direction: NA
Pressure: 29.94"   Gusts: NA
Location:  36.3°N, 30.14°E
Report Text: LTAI 242320Z VRB03KT 9999 TS BKN015CB 17/15 Q1014 NOSIG
Loading
Personal Weather Stations






























Interactive Weather Map
Tropical Storm Tracking
New forecast layout! Learn more

10-Day Weather Forecast

Advertisements
Track Severe Weather on mobile